sensor_id;sensor_type;location;lat;lon;timestamp;temperature;humidity
55369;DHT22;41247;49.736;8.752;2023-05-01T00:03:05;10.00;99.90
55369;DHT22;41247;49.736;8.752;2023-05-01T00:06:46;9.90;99.90
55369;DHT22;41247;49.736;8.752;2023-05-01T00:10:26;9.90;99.90
55369;DHT22;41247;49.736;8.752;2023-05-01T00:14:07;9.90;99.90
55369;DHT22;41247;49.736;8.752;2023-05-01T00:17:48;9.90;99.90
55369;DHT22;41247;49.736;8.752;2023-05-01T00:21:28;9.80;99.90
55369;DHT22;41247;49.736;8.752;2023-05-01T00:25:09;9.80;99.90
55369;DHT22;41247;49.736;8.752;2023-05-01T00:28:49;9.80;99.90
55369;DHT22;41247;49.736;8.752;2023-05-01T00:32:30;9.80;99.90
55369;DHT22;41247;49.736;8.752;2023-05-01T00:36:10;9.70;99.90
55369;DHT22;41247;49.736;8.752;2023-05-01T00:39:51;9.70;99.90
55369;DHT22;41247;49.736;8.752;2023-05-01T00:43:32;9.60;99.90
55369;DHT22;41247;49.736;8.752;2023-05-01T00:47:12;9.60;99.90
55369;DHT22;41247;49.736;8.752;2023-05-01T00:50:54;9.60;99.90
55369;DHT22;41247;49.736;8.752;2023-05-01T00:54:36;9.50;99.90
55369;DHT22;41247;49.736;8.752;2023-05-01T00:58:17;9.50;99.90
55369;DHT22;41247;49.736;8.752;2023-05-01T01:01:57;9.40;99.90
55369;DHT22;41247;49.736;8.752;2023-05-01T01:05:42;9.30;99.90
55369;DHT22;41247;49.736;8.752;2023-05-01T01:09:54;9.30;99.90
55369;DHT22;41247;49.736;8.752;2023-05-01T01:13:51;9.30;99.90
55369;DHT22;41247;49.736;8.752;2023-05-01T01:21:41;9.10;99.90
55369;DHT22;41247;49.736;8.752;2023-05-01T01:25:48;9.00;99.90
55369;DHT22;41247;49.736;8.752;2023-05-01T01:29:57;8.90;99.90
55369;DHT22;41247;49.736;8.752;2023-05-01T01:34:03;8.90;99.90
55369;DHT22;41247;49.736;8.752;2023-05-01T01:37:59;8.80;99.90
55369;DHT22;41247;49.736;8.752;2023-05-01T01:41:48;8.80;99.90
55369;DHT22;41247;49.736;8.752;2023-05-01T01:45:40;8.80;99.90
55369;DHT22;41247;49.736;8.752;2023-05-01T01:49:25;8.70;99.90
55369;DHT22;41247;49.736;8.752;2023-05-01T01:53:08;8.70;99.90
55369;DHT22;41247;49.736;8.752;2023-05-01T01:56:49;8.70;99.90
55369;DHT22;41247;49.736;8.752;2023-05-01T02:00:31;8.60;99.90
55369;DHT22;41247;49.736;8.752;2023-05-01T02:04:14;8.60;99.90
55369;DHT22;41247;49.736;8.752;2023-05-01T02:07:55;8.60;99.90
55369;DHT22;41247;49.736;8.752;2023-05-01T02:11:37;8.60;99.90
55369;DHT22;41247;49.736;8.752;2023-05-01T02:15:19;8.70;99.90
55369;DHT22;41247;49.736;8.752;2023-05-01T02:19:02;8.70;99.90
55369;DHT22;41247;49.736;8.752;2023-05-01T02:22:46;8.70;99.90
55369;DHT22;41247;49.736;8.752;2023-05-01T02:26:28;8.80;99.90
55369;DHT22;41247;49.736;8.752;2023-05-01T02:30:10;8.90;99.90
55369;DHT22;41247;49.736;8.752;2023-05-01T02:33:51;8.90;99.90
55369;DHT22;41247;49.736;8.752;2023-05-01T02:37:32;8.90;99.90
55369;DHT22;41247;49.736;8.752;2023-05-01T02:41:14;8.90;99.90
55369;DHT22;41247;49.736;8.752;2023-05-01T02:45:10;9.00;99.90
55369;DHT22;41247;49.736;8.752;2023-05-01T02:49:01;9.00;99.90
55369;DHT22;41247;49.736;8.752;2023-05-01T02:52:43;9.00;99.90
55369;DHT22;41247;49.736;8.752;2023-05-01T02:56:25;9.10;99.90
55369;DHT22;41247;49.736;8.752;2023-05-01T03:00:06;9.30;99.90
55369;DHT22;41247;49.736;8.752;2023-05-01T03:03:47;9.30;99.90
55369;DHT22;41247;49.736;8.752;2023-05-01T03:07:28;9.30;99.90
55369;DHT22;41247;49.736;8.752;2023-05-01T03:11:08;9.20;99.90
55369;DHT22;41247;49.736;8.752;2023-05-01T03:14:49;9.10;99.90
55369;DHT22;41247;49.736;8.752;2023-05-01T03:18:29;9.00;99.90
55369;DHT22;41247;49.736;8.752;2023-05-01T03:22:10;9.00;99.90
55369;DHT22;41247;49.736;8.752;2023-05-01T03:25:50;8.90;99.90
55369;DHT22;41247;49.736;8.752;2023-05-01T03:29:31;8.80;99.90
55369;DHT22;41247;49.736;8.752;2023-05-01T03:33:12;8.70;99.90
55369;DHT22;41247;49.736;8.752;2023-05-01T03:36:52;8.80;99.90
55369;DHT22;41247;49.736;8.752;2023-05-01T03:40:33;8.70;99.90
55369;DHT22;41247;49.736;8.752;2023-05-01T03:44:13;8.70;99.90
55369;DHT22;41247;49.736;8.752;2023-05-01T03:47:54;8.70;99.90
55369;DHT22;41247;49.736;8.752;2023-05-01T03:51:34;8.70;99.90
55369;DHT22;41247;49.736;8.752;2023-05-01T03:55:15;8.80;99.90
55369;DHT22;41247;49.736;8.752;2023-05-01T03:58:58;8.80;99.90
55369;DHT22;41247;49.736;8.752;2023-05-01T04:02:39;8.80;99.90
55369;DHT22;41247;49.736;8.752;2023-05-01T04:06:19;8.80;99.90
55369;DHT22;41247;49.736;8.752;2023-05-01T04:10:00;8.70;99.90
55369;DHT22;41247;49.736;8.752;2023-05-01T04:13:41;8.80;99.90
55369;DHT22;41247;49.736;8.752;2023-05-01T04:17:21;8.80;99.90
55369;DHT22;41247;49.736;8.752;2023-05-01T04:21:02;9.00;99.90
55369;DHT22;41247;49.736;8.752;2023-05-01T04:24:43;9.20;99.90
55369;DHT22;41247;49.736;8.752;2023-05-01T04:28:23;9.30;99.90
55369;DHT22;41247;49.736;8.752;2023-05-01T04:32:04;9.50;99.90
55369;DHT22;41247;49.736;8.752;2023-05-01T04:35:44;9.60;99.90
55369;DHT22;41247;49.736;8.752;2023-05-01T04:39:25;9.70;99.90
55369;DHT22;41247;49.736;8.752;2023-05-01T04:43:06;9.70;99.90
55369;DHT22;41247;49.736;8.752;2023-05-01T04:46:46;9.80;99.90
55369;DHT22;41247;49.736;8.752;2023-05-01T04:50:27;10.00;99.90
55369;DHT22;41247;49.736;8.752;2023-05-01T04:54:07;10.10;99.90
55369;DHT22;41247;49.736;8.752;2023-05-01T04:57:48;10.10;99.90
55369;DHT22;41247;49.736;8.752;2023-05-01T05:01:28;10.20;99.90
55369;DHT22;41247;49.736;8.752;2023-05-01T05:05:10;10.30;99.90
55369;DHT22;41247;49.736;8.752;2023-05-01T05:08:51;10.40;99.90
55369;DHT22;41247;49.736;8.752;2023-05-01T05:12:31;10.60;99.90
55369;DHT22;41247;49.736;8.752;2023-05-01T05:16:12;10.70;99.90
55369;DHT22;41247;49.736;8.752;2023-05-01T05:19:53;10.80;99.90
55369;DHT22;41247;49.736;8.752;2023-05-01T05:23:33;10.90;99.90
55369;DHT22;41247;49.736;8.752;2023-05-01T05:27:14;11.00;99.90
55369;DHT22;41247;49.736;8.752;2023-05-01T05:30:55;11.10;99.90
55369;DHT22;41247;49.736;8.752;2023-05-01T05:34:36;11.10;99.90
55369;DHT22;41247;49.736;8.752;2023-05-01T05:38:17;11.20;99.90
55369;DHT22;41247;49.736;8.752;2023-05-01T05:41:57;11.30;99.90
55369;DHT22;41247;49.736;8.752;2023-05-01T05:46:14;11.30;99.90
55369;DHT22;41247;49.736;8.752;2023-05-01T05:55:57;11.40;99.90
55369;DHT22;41247;49.736;8.752;2023-05-01T06:00:41;11.40;99.90
55369;DHT22;41247;49.736;8.752;2023-05-01T06:04:35;11.40;99.90
55369;DHT22;41247;49.736;8.752;2023-05-01T06:08:37;11.40;99.90
55369;DHT22;41247;49.736;8.752;2023-05-01T06:12:19;11.40;99.90
55369;DHT22;41247;49.736;8.752;2023-05-01T06:16:00;11.40;99.90
55369;DHT22;41247;49.736;8.752;2023-05-01T06:24:20;11.60;99.90
55369;DHT22;41247;49.736;8.752;2023-05-01T06:28:03;11.80;99.90
55369;DHT22;41247;49.736;8.752;2023-05-01T06:31:53;12.00;99.90
55369;DHT22;41247;49.736;8.752;2023-05-01T06:45:37;12.70;99.90
55369;DHT22;41247;49.736;8.752;2023-05-01T06:49:18;12.90;99.90
55369;DHT22;41247;49.736;8.752;2023-05-01T06:52:58;13.00;99.90
55369;DHT22;41247;49.736;8.752;2023-05-01T06:56:39;13.00;99.90
55369;DHT22;41247;49.736;8.752;2023-05-01T07:00:19;13.00;99.90
55369;DHT22;41247;49.736;8.752;2023-05-01T07:04:00;13.00;99.90
55369;DHT22;41247;49.736;8.752;2023-05-01T07:07:41;13.10;99.90
55369;DHT22;41247;49.736;8.752;2023-05-01T07:11:21;13.20;99.90
55369;DHT22;41247;49.736;8.752;2023-05-01T07:15:02;13.40;99.90
55369;DHT22;41247;49.736;8.752;2023-05-01T07:18:43;13.60;99.90
55369;DHT22;41247;49.736;8.752;2023-05-01T07:22:23;13.70;99.90
55369;DHT22;41247;49.736;8.752;2023-05-01T07:26:04;13.80;99.90
55369;DHT22;41247;49.736;8.752;2023-05-01T07:29:45;13.90;99.90
55369;DHT22;41247;49.736;8.752;2023-05-01T07:33:25;14.00;99.90
55369;DHT22;41247;49.736;8.752;2023-05-01T07:37:06;14.10;99.90
55369;DHT22;41247;49.736;8.752;2023-05-01T07:40:47;14.20;99.90
55369;DHT22;41247;49.736;8.752;2023-05-01T07:44:27;14.50;99.90
55369;DHT22;41247;49.736;8.752;2023-05-01T07:48:08;14.80;99.90
55369;DHT22;41247;49.736;8.752;2023-05-01T07:51:49;14.80;99.90
55369;DHT22;41247;49.736;8.752;2023-05-01T07:55:29;15.00;99.90
55369;DHT22;41247;49.736;8.752;2023-05-01T07:59:10;15.20;99.90
55369;DHT22;41247;49.736;8.752;2023-05-01T08:02:50;15.20;99.90
55369;DHT22;41247;49.736;8.752;2023-05-01T08:06:31;15.00;99.90
55369;DHT22;41247;49.736;8.752;2023-05-01T08:10:11;15.00;99.90
55369;DHT22;41247;49.736;8.752;2023-05-01T08:13:52;14.80;99.90
55369;DHT22;41247;49.736;8.752;2023-05-01T08:17:34;14.70;99.90
55369;DHT22;41247;49.736;8.752;2023-05-01T08:21:15;14.80;99.90
55369;DHT22;41247;49.736;8.752;2023-05-01T08:24:56;15.00;99.90
55369;DHT22;41247;49.736;8.752;2023-05-01T08:28:36;15.20;99.90
55369;DHT22;41247;49.736;8.752;2023-05-01T08:32:17;15.30;99.90
55369;DHT22;41247;49.736;8.752;2023-05-01T08:35:58;15.50;99.90
55369;DHT22;41247;49.736;8.752;2023-05-01T08:39:38;15.60;99.90
55369;DHT22;41247;49.736;8.752;2023-05-01T08:43:19;15.80;99.90
55369;DHT22;41247;49.736;8.752;2023-05-01T08:50:51;15.50;99.90
55369;DHT22;41247;49.736;8.752;2023-05-01T08:54:34;15.40;99.90
55369;DHT22;41247;49.736;8.752;2023-05-01T08:58:17;15.40;99.90
55369;DHT22;41247;49.736;8.752;2023-05-01T09:02:00;15.60;99.90
55369;DHT22;41247;49.736;8.752;2023-05-01T09:05:41;15.60;99.90
55369;DHT22;41247;49.736;8.752;2023-05-01T09:09:22;15.60;99.90
55369;DHT22;41247;49.736;8.752;2023-05-01T09:13:03;15.70;99.90
55369;DHT22;41247;49.736;8.752;2023-05-01T09:16:44;15.80;99.90
55369;DHT22;41247;49.736;8.752;2023-05-01T09:20:24;15.90;99.90
55369;DHT22;41247;49.736;8.752;2023-05-01T09:24:05;16.00;99.90
55369;DHT22;41247;49.736;8.752;2023-05-01T09:27:46;16.00;99.90
55369;DHT22;41247;49.736;8.752;2023-05-01T09:31:28;16.00;99.90
55369;DHT22;41247;49.736;8.752;2023-05-01T09:35:11;16.20;99.90
55369;DHT22;41247;49.736;8.752;2023-05-01T09:38:53;16.30;99.90
55369;DHT22;41247;49.736;8.752;2023-05-01T09:42:48;16.30;99.90
55369;DHT22;41247;49.736;8.752;2023-05-01T09:46:40;16.30;99.90
55369;DHT22;41247;49.736;8.752;2023-05-01T09:54:19;16.00;99.90
55369;DHT22;41247;49.736;8.752;2023-05-01T09:57:59;16.00;99.90
55369;DHT22;41247;49.736;8.752;2023-05-01T10:01:45;15.90;99.90
55369;DHT22;41247;49.736;8.752;2023-05-01T10:05:26;16.00;99.90
55369;DHT22;41247;49.736;8.752;2023-05-01T10:09:08;16.30;99.90
55369;DHT22;41247;49.736;8.752;2023-05-01T10:12:49;16.60;99.90
55369;DHT22;41247;49.736;8.752;2023-05-01T10:16:30;16.90;99.90
55369;DHT22;41247;49.736;8.752;2023-05-01T10:20:12;16.90;99.90
55369;DHT22;41247;49.736;8.752;2023-05-01T10:23:54;16.70;99.90
55369;DHT22;41247;49.736;8.752;2023-05-01T10:27:40;16.40;99.90
55369;DHT22;41247;49.736;8.752;2023-05-01T10:31:21;16.60;99.90
55369;DHT22;41247;49.736;8.752;2023-05-01T10:35:06;17.10;99.90
55369;DHT22;41247;49.736;8.752;2023-05-01T10:38:49;17.50;99.90
55369;DHT22;41247;49.736;8.752;2023-05-01T10:42:29;17.70;99.90
55369;DHT22;41247;49.736;8.752;2023-05-01T10:50:10;17.50;99.90
55369;DHT22;41247;49.736;8.752;2023-05-01T10:57:51;17.70;99.90
55369;DHT22;41247;49.736;8.752;2023-05-01T11:01:45;18.20;99.90
55369;DHT22;41247;49.736;8.752;2023-05-01T11:13:57;19.00;99.90
55369;DHT22;41247;49.736;8.752;2023-05-01T11:17:45;19.20;99.90
55369;DHT22;41247;49.736;8.752;2023-05-01T11:21:30;19.40;99.90
55369;DHT22;41247;49.736;8.752;2023-05-01T11:25:23;19.40;99.90
55369;DHT22;41247;49.736;8.752;2023-05-01T11:29:05;19.70;99.90
55369;DHT22;41247;49.736;8.752;2023-05-01T11:32:47;19.70;99.90
55369;DHT22;41247;49.736;8.752;2023-05-01T11:36:46;19.90;99.90
55369;DHT22;41247;49.736;8.752;2023-05-01T11:40:30;20.10;99.90
55369;DHT22;41247;49.736;8.752;2023-05-01T11:44:16;20.10;99.90
55369;DHT22;41247;49.736;8.752;2023-05-01T11:47:57;20.00;99.90
55369;DHT22;41247;49.736;8.752;2023-05-01T11:51:38;19.80;99.90
55369;DHT22;41247;49.736;8.752;2023-05-01T11:55:19;19.70;99.90
55369;DHT22;41247;49.736;8.752;2023-05-01T11:59:14;19.70;99.90
55369;DHT22;41247;49.736;8.752;2023-05-01T12:02:57;19.60;99.90
55369;DHT22;41247;49.736;8.752;2023-05-01T12:06:45;19.60;99.90
55369;DHT22;41247;49.736;8.752;2023-05-01T12:10:26;19.80;99.90
55369;DHT22;41247;49.736;8.752;2023-05-01T12:14:07;19.80;99.90
55369;DHT22;41247;49.736;8.752;2023-05-01T12:17:48;19.70;99.90
55369;DHT22;41247;49.736;8.752;2023-05-01T12:21:28;19.60;99.90
55369;DHT22;41247;49.736;8.752;2023-05-01T12:25:09;19.50;99.90
55369;DHT22;41247;49.736;8.752;2023-05-01T12:29:05;19.30;99.90
55369;DHT22;41247;49.736;8.752;2023-05-01T12:32:46;19.10;99.90
55369;DHT22;41247;49.736;8.752;2023-05-01T12:36:28;19.50;99.90
55369;DHT22;41247;49.736;8.752;2023-05-01T12:40:13;20.10;99.90
55369;DHT22;41247;49.736;8.752;2023-05-01T12:43:54;20.10;99.90
55369;DHT22;41247;49.736;8.752;2023-05-01T12:47:35;19.90;99.90
55369;DHT22;41247;49.736;8.752;2023-05-01T12:51:18;19.50;99.90
55369;DHT22;41247;49.736;8.752;2023-05-01T12:55:03;18.80;99.90
55369;DHT22;41247;49.736;8.752;2023-05-01T12:58:44;18.40;99.90
55369;DHT22;41247;49.736;8.752;2023-05-01T13:02:32;18.10;99.90
55369;DHT22;41247;49.736;8.752;2023-05-01T13:06:13;17.90;99.90
55369;DHT22;41247;49.736;8.752;2023-05-01T13:09:55;18.00;99.90
55369;DHT22;41247;49.736;8.752;2023-05-01T13:13:37;18.20;99.90
55369;DHT22;41247;49.736;8.752;2023-05-01T13:17:26;18.20;99.90
55369;DHT22;41247;49.736;8.752;2023-05-01T13:21:12;18.10;99.90
55369;DHT22;41247;49.736;8.752;2023-05-01T13:24:54;18.20;99.90
55369;DHT22;41247;49.736;8.752;2023-05-01T13:28:42;18.50;99.90
55369;DHT22;41247;49.736;8.752;2023-05-01T13:32:24;18.70;99.90
55369;DHT22;41247;49.736;8.752;2023-05-01T13:36:05;18.50;99.90
55369;DHT22;41247;49.736;8.752;2023-05-01T13:39:47;18.20;99.90
55369;DHT22;41247;49.736;8.752;2023-05-01T13:43:28;17.70;99.90
55369;DHT22;41247;49.736;8.752;2023-05-01T13:47:14;17.40;99.90
55369;DHT22;41247;49.736;8.752;2023-05-01T13:50:55;17.20;99.90
55369;DHT22;41247;49.736;8.752;2023-05-01T13:54:38;17.00;99.90
55369;DHT22;41247;49.736;8.752;2023-05-01T13:58:19;16.90;99.90
55369;DHT22;41247;49.736;8.752;2023-05-01T14:02:00;16.80;99.90
55369;DHT22;41247;49.736;8.752;2023-05-01T14:05:40;16.70;99.90
55369;DHT22;41247;49.736;8.752;2023-05-01T14:09:21;16.90;99.90
55369;DHT22;41247;49.736;8.752;2023-05-01T14:13:02;17.20;99.90
55369;DHT22;41247;49.736;8.752;2023-05-01T14:16:49;17.70;99.90
55369;DHT22;41247;49.736;8.752;2023-05-01T14:20:30;18.60;99.90
55369;DHT22;41247;49.736;8.752;2023-05-01T14:24:10;18.90;99.90
55369;DHT22;41247;49.736;8.752;2023-05-01T14:27:52;19.30;99.90
55369;DHT22;41247;49.736;8.752;2023-05-01T14:31:33;20.10;99.90
55369;DHT22;41247;49.736;8.752;2023-05-01T14:35:14;21.00;99.90
55369;DHT22;41247;49.736;8.752;2023-05-01T14:38:55;21.60;99.90
55369;DHT22;41247;49.736;8.752;2023-05-01T14:42:40;21.90;99.90
55369;DHT22;41247;49.736;8.752;2023-05-01T14:46:32;22.00;99.90
55369;DHT22;41247;49.736;8.752;2023-05-01T14:50:21;22.30;99.90
55369;DHT22;41247;49.736;8.752;2023-05-01T14:54:02;22.00;99.90
55369;DHT22;41247;49.736;8.752;2023-05-01T14:57:43;21.80;99.90
55369;DHT22;41247;49.736;8.752;2023-05-01T15:01:24;22.40;99.90
55369;DHT22;41247;49.736;8.752;2023-05-01T15:05:05;23.00;99.90
55369;DHT22;41247;49.736;8.752;2023-05-01T15:08:46;23.50;99.90
55369;DHT22;41247;49.736;8.752;2023-05-01T15:12:26;23.70;99.90
55369;DHT22;41247;49.736;8.752;2023-05-01T15:16:08;23.60;99.90
55369;DHT22;41247;49.736;8.752;2023-05-01T15:19:48;23.60;99.90
55369;DHT22;41247;49.736;8.752;2023-05-01T15:23:29;22.90;99.90
55369;DHT22;41247;49.736;8.752;2023-05-01T15:27:10;22.20;99.90
55369;DHT22;41247;49.736;8.752;2023-05-01T15:30:51;22.00;99.90
55369;DHT22;41247;49.736;8.752;2023-05-01T15:34:32;22.00;99.90
55369;DHT22;41247;49.736;8.752;2023-05-01T15:38:13;21.40;99.90
55369;DHT22;41247;49.736;8.752;2023-05-01T15:41:53;20.70;99.90
55369;DHT22;41247;49.736;8.752;2023-05-01T15:45:34;20.20;99.90
55369;DHT22;41247;49.736;8.752;2023-05-01T15:49:14;20.00;99.90
55369;DHT22;41247;49.736;8.752;2023-05-01T15:52:55;20.20;99.90
55369;DHT22;41247;49.736;8.752;2023-05-01T15:56:36;20.50;99.90
55369;DHT22;41247;49.736;8.752;2023-05-01T16:00:17;20.90;99.90
55369;DHT22;41247;49.736;8.752;2023-05-01T16:03:58;21.10;99.90
55369;DHT22;41247;49.736;8.752;2023-05-01T16:07:39;21.00;99.90
55369;DHT22;41247;49.736;8.752;2023-05-01T16:11:19;20.70;99.90
55369;DHT22;41247;49.736;8.752;2023-05-01T16:15:01;20.10;99.90
55369;DHT22;41247;49.736;8.752;2023-05-01T16:18:43;19.70;99.90
55369;DHT22;41247;49.736;8.752;2023-05-01T16:22:23;19.80;99.90
55369;DHT22;41247;49.736;8.752;2023-05-01T16:26:05;20.10;99.90
55369;DHT22;41247;49.736;8.752;2023-05-01T16:29:45;20.30;99.90
55369;DHT22;41247;49.736;8.752;2023-05-01T16:33:26;20.40;99.90
55369;DHT22;41247;49.736;8.752;2023-05-01T16:37:07;20.10;99.90
55369;DHT22;41247;49.736;8.752;2023-05-01T16:40:47;19.80;99.90
55369;DHT22;41247;49.736;8.752;2023-05-01T16:44:28;19.90;99.90
55369;DHT22;41247;49.736;8.752;2023-05-01T16:48:08;19.70;99.90
55369;DHT22;41247;49.736;8.752;2023-05-01T16:51:49;19.40;99.90
55369;DHT22;41247;49.736;8.752;2023-05-01T16:55:30;19.10;99.90
55369;DHT22;41247;49.736;8.752;2023-05-01T16:59:10;18.90;99.90
55369;DHT22;41247;49.736;8.752;2023-05-01T17:02:51;18.80;99.90
55369;DHT22;41247;49.736;8.752;2023-05-01T17:06:31;19.50;99.90
55369;DHT22;41247;49.736;8.752;2023-05-01T17:10:12;20.10;99.90
55369;DHT22;41247;49.736;8.752;2023-05-01T17:13:52;19.60;99.90
55369;DHT22;41247;49.736;8.752;2023-05-01T17:17:33;18.70;99.90
55369;DHT22;41247;49.736;8.752;2023-05-01T17:21:14;18.00;99.90
55369;DHT22;41247;49.736;8.752;2023-05-01T17:24:54;17.40;99.90
55369;DHT22;41247;49.736;8.752;2023-05-01T17:28:35;16.80;99.90
55369;DHT22;41247;49.736;8.752;2023-05-01T17:32:17;16.30;99.90
55369;DHT22;41247;49.736;8.752;2023-05-01T17:35:58;16.00;99.90
55369;DHT22;41247;49.736;8.752;2023-05-01T17:39:39;15.80;99.90
55369;DHT22;41247;49.736;8.752;2023-05-01T17:43:19;15.50;99.90
55369;DHT22;41247;49.736;8.752;2023-05-01T17:47:00;15.20;99.90
55369;DHT22;41247;49.736;8.752;2023-05-01T17:50:40;15.00;99.90
55369;DHT22;41247;49.736;8.752;2023-05-01T17:54:21;14.80;99.90
55369;DHT22;41247;49.736;8.752;2023-05-01T17:58:01;14.40;99.90
55369;DHT22;41247;49.736;8.752;2023-05-01T18:01:42;14.20;99.90
55369;DHT22;41247;49.736;8.752;2023-05-01T18:05:23;13.90;99.90
55369;DHT22;41247;49.736;8.752;2023-05-01T18:09:03;13.70;99.90
55369;DHT22;41247;49.736;8.752;2023-05-01T18:12:44;13.60;99.90
55369;DHT22;41247;49.736;8.752;2023-05-01T18:16:24;13.40;99.90
55369;DHT22;41247;49.736;8.752;2023-05-01T18:20:06;13.30;99.90
55369;DHT22;41247;49.736;8.752;2023-05-01T18:23:46;13.10;99.90
55369;DHT22;41247;49.736;8.752;2023-05-01T18:27:27;12.90;99.90
55369;DHT22;41247;49.736;8.752;2023-05-01T18:31:08;12.80;99.90
55369;DHT22;41247;49.736;8.752;2023-05-01T18:34:48;12.70;99.90
55369;DHT22;41247;49.736;8.752;2023-05-01T18:38:29;12.60;99.90
55369;DHT22;41247;49.736;8.752;2023-05-01T18:42:09;12.40;99.90
55369;DHT22;41247;49.736;8.752;2023-05-01T18:45:50;12.30;99.90
55369;DHT22;41247;49.736;8.752;2023-05-01T18:49:30;12.20;99.90
55369;DHT22;41247;49.736;8.752;2023-05-01T18:53:11;12.20;99.90
55369;DHT22;41247;49.736;8.752;2023-05-01T18:56:52;12.20;99.90
55369;DHT22;41247;49.736;8.752;2023-05-01T19:00:32;12.10;99.90
55369;DHT22;41247;49.736;8.752;2023-05-01T19:04:13;12.10;99.90
55369;DHT22;41247;49.736;8.752;2023-05-01T19:07:53;12.10;99.90
55369;DHT22;41247;49.736;8.752;2023-05-01T19:11:34;12.10;99.90
55369;DHT22;41247;49.736;8.752;2023-05-01T19:15:15;12.00;99.90
55369;DHT22;41247;49.736;8.752;2023-05-01T19:18:55;12.00;99.90
55369;DHT22;41247;49.736;8.752;2023-05-01T19:22:36;12.00;99.90
55369;DHT22;41247;49.736;8.752;2023-05-01T19:26:16;12.10;99.90
55369;DHT22;41247;49.736;8.752;2023-05-01T19:29:57;12.40;99.90
55369;DHT22;41247;49.736;8.752;2023-05-01T19:33:38;12.60;99.90
55369;DHT22;41247;49.736;8.752;2023-05-01T19:37:18;12.70;99.90
55369;DHT22;41247;49.736;8.752;2023-05-01T19:40:59;12.80;99.90
55369;DHT22;41247;49.736;8.752;2023-05-01T19:44:39;12.90;99.90
55369;DHT22;41247;49.736;8.752;2023-05-01T19:48:20;12.90;99.90
55369;DHT22;41247;49.736;8.752;2023-05-01T19:52:01;12.90;99.90
55369;DHT22;41247;49.736;8.752;2023-05-01T19:55:41;13.00;99.90
55369;DHT22;41247;49.736;8.752;2023-05-01T19:59:22;12.90;99.90
55369;DHT22;41247;49.736;8.752;2023-05-01T20:03:03;12.80;99.90
55369;DHT22;41247;49.736;8.752;2023-05-01T20:06:44;12.80;99.90
55369;DHT22;41247;49.736;8.752;2023-05-01T20:10:25;12.70;99.90
55369;DHT22;41247;49.736;8.752;2023-05-01T20:14:06;12.60;99.90
55369;DHT22;41247;49.736;8.752;2023-05-01T20:17:46;12.50;99.90
55369;DHT22;41247;49.736;8.752;2023-05-01T20:21:27;12.50;99.90
55369;DHT22;41247;49.736;8.752;2023-05-01T20:25:08;12.40;99.90
55369;DHT22;41247;49.736;8.752;2023-05-01T20:28:48;12.30;99.90
55369;DHT22;41247;49.736;8.752;2023-05-01T20:32:29;12.30;99.90
55369;DHT22;41247;49.736;8.752;2023-05-01T20:36:09;12.20;99.90
55369;DHT22;41247;49.736;8.752;2023-05-01T20:39:50;12.20;99.90
55369;DHT22;41247;49.736;8.752;2023-05-01T20:43:30;12.10;99.90
55369;DHT22;41247;49.736;8.752;2023-05-01T20:47:11;12.00;99.90
55369;DHT22;41247;49.736;8.752;2023-05-01T20:50:52;12.00;99.90
55369;DHT22;41247;49.736;8.752;2023-05-01T20:54:32;11.90;99.90
55369;DHT22;41247;49.736;8.752;2023-05-01T20:58:13;11.80;99.90
55369;DHT22;41247;49.736;8.752;2023-05-01T21:01:53;11.70;99.90
55369;DHT22;41247;49.736;8.752;2023-05-01T21:05:34;11.70;99.90
55369;DHT22;41247;49.736;8.752;2023-05-01T21:09:15;11.70;99.90
55369;DHT22;41247;49.736;8.752;2023-05-01T21:12:55;11.60;99.90
55369;DHT22;41247;49.736;8.752;2023-05-01T21:16:37;11.50;99.90
55369;DHT22;41247;49.736;8.752;2023-05-01T21:20:29;11.40;99.90
55369;DHT22;41247;49.736;8.752;2023-05-01T21:24:17;11.40;99.90
55369;DHT22;41247;49.736;8.752;2023-05-01T21:28:00;11.30;99.90
55369;DHT22;41247;49.736;8.752;2023-05-01T21:31:41;11.30;99.90
55369;DHT22;41247;49.736;8.752;2023-05-01T21:35:23;11.20;99.90
55369;DHT22;41247;49.736;8.752;2023-05-01T21:39:05;11.20;99.90
55369;DHT22;41247;49.736;8.752;2023-05-01T21:42:46;11.10;99.90
55369;DHT22;41247;49.736;8.752;2023-05-01T21:46:26;11.10;99.90
55369;DHT22;41247;49.736;8.752;2023-05-01T21:50:10;11.10;99.90
55369;DHT22;41247;49.736;8.752;2023-05-01T21:53:52;11.10;99.90
55369;DHT22;41247;49.736;8.752;2023-05-01T21:57:36;11.10;99.90
55369;DHT22;41247;49.736;8.752;2023-05-01T22:01:18;11.10;99.90
55369;DHT22;41247;49.736;8.752;2023-05-01T22:05:01;11.10;99.90
55369;DHT22;41247;49.736;8.752;2023-05-01T22:08:42;11.10;99.90
55369;DHT22;41247;49.736;8.752;2023-05-01T22:12:22;11.10;99.90
55369;DHT22;41247;49.736;8.752;2023-05-01T22:16:03;11.10;99.90
55369;DHT22;41247;49.736;8.752;2023-05-01T22:19:44;11.10;99.90
55369;DHT22;41247;49.736;8.752;2023-05-01T22:23:24;11.10;99.90
55369;DHT22;41247;49.736;8.752;2023-05-01T22:27:05;11.10;99.90
55369;DHT22;41247;49.736;8.752;2023-05-01T22:30:46;11.10;99.90
55369;DHT22;41247;49.736;8.752;2023-05-01T22:34:26;11.10;99.90
55369;DHT22;41247;49.736;8.752;2023-05-01T22:38:07;11.10;99.90
55369;DHT22;41247;49.736;8.752;2023-05-01T22:41:47;11.00;99.90
55369;DHT22;41247;49.736;8.752;2023-05-01T22:45:28;11.10;99.90
55369;DHT22;41247;49.736;8.752;2023-05-01T23:08:15;11.00;99.90
55369;DHT22;41247;49.736;8.752;2023-05-01T23:12:31;11.00;99.90
55369;DHT22;41247;49.736;8.752;2023-05-01T23:16:12;11.00;99.90
55369;DHT22;41247;49.736;8.752;2023-05-01T23:19:53;11.00;99.90
55369;DHT22;41247;49.736;8.752;2023-05-01T23:23:34;11.00;99.90
55369;DHT22;41247;49.736;8.752;2023-05-01T23:27:15;10.90;99.90
55369;DHT22;41247;49.736;8.752;2023-05-01T23:30:59;10.90;99.90
55369;DHT22;41247;49.736;8.752;2023-05-01T23:34:41;10.90;99.90
55369;DHT22;41247;49.736;8.752;2023-05-01T23:38:21;10.90;99.90
55369;DHT22;41247;49.736;8.752;2023-05-01T23:42:02;10.90;99.90
55369;DHT22;41247;49.736;8.752;2023-05-01T23:45:43;10.90;99.90
55369;DHT22;41247;49.736;8.752;2023-05-01T23:49:24;10.90;99.90
55369;DHT22;41247;49.736;8.752;2023-05-01T23:53:06;10.90;99.90
55369;DHT22;41247;49.736;8.752;2023-05-01T23:56:47;10.90;99.90
